createdAt,value
2023-05-22T00:00:16.700Z,4.60
2023-05-22T00:02:43.909Z,5.10
2023-05-22T00:05:14.577Z,4.40
2023-05-22T00:07:46.015Z,4.50
2023-05-22T00:10:12.970Z,4.13
2023-05-22T00:12:40.017Z,4.27
2023-05-22T00:15:07.721Z,4.13
2023-05-22T00:17:34.631Z,4.50
2023-05-22T00:20:08.153Z,3.87
2023-05-22T00:22:35.641Z,4.33
2023-05-22T00:25:03.922Z,3.93
2023-05-22T00:27:30.813Z,4.10
2023-05-22T00:29:58.542Z,3.90
2023-05-22T00:32:28.535Z,3.90
2023-05-22T00:34:55.431Z,4.10
2023-05-22T00:37:22.270Z,3.77
2023-05-22T00:39:49.501Z,3.83
2023-05-22T00:42:16.969Z,4.03
2023-05-22T00:44:43.755Z,3.80
2023-05-22T00:47:10.919Z,3.87
2023-05-22T00:49:37.768Z,4.00
2023-05-22T00:52:04.896Z,3.67
2023-05-22T00:54:32.926Z,3.73
2023-05-22T00:57:01.471Z,3.90
2023-05-22T00:59:29.148Z,3.33
2023-05-22T01:01:57.294Z,3.70
2023-05-22T01:04:26.246Z,4.00
2023-05-22T01:06:55.131Z,3.40
2023-05-22T01:09:24.486Z,3.23
2023-05-22T01:11:51.259Z,4.00
2023-05-22T01:14:49.214Z,3.40
2023-05-22T01:17:40.841Z,3.97
2023-05-22T01:20:21.663Z,3.77
2023-05-22T01:22:58.741Z,3.67
2023-05-22T01:25:56.435Z,3.80
2023-05-22T01:28:37.888Z,4.23
2023-05-22T01:31:17.375Z,3.90
2023-05-22T01:33:48.514Z,3.90
2023-05-22T01:36:20.369Z,4.40
2023-05-22T01:38:47.964Z,3.30
2023-05-22T01:41:16.314Z,3.57
2023-05-22T01:43:45.467Z,2.57
2023-05-22T01:46:12.482Z,3.50
2023-05-22T01:48:39.387Z,3.33
2023-05-22T01:51:40.907Z,3.37
2023-05-22T01:54:32.696Z,3.20
2023-05-22T01:57:12.809Z,4.03
2023-05-22T01:59:48.719Z,3.67
2023-05-22T02:02:18.764Z,3.50
2023-05-22T02:05:01.560Z,3.73
2023-05-22T02:07:29.356Z,3.27
2023-05-22T02:09:58.028Z,3.43
2023-05-22T02:12:25.476Z,3.73
2023-05-22T02:14:52.849Z,3.97
2023-05-22T02:17:20.361Z,4.17
2023-05-22T02:19:47.259Z,3.70
2023-05-22T02:22:14.590Z,3.57
2023-05-22T02:24:44.038Z,3.90
2023-05-22T02:27:10.960Z,3.60
2023-05-22T02:29:38.093Z,3.33
2023-05-22T02:32:05.484Z,3.63
2023-05-22T02:34:32.263Z,3.37
2023-05-22T02:37:00.132Z,3.60
2023-05-22T02:39:27.708Z,4.00
2023-05-22T02:41:54.664Z,3.80
2023-05-22T02:44:21.940Z,3.60
2023-05-22T02:46:48.878Z,4.17
2023-05-22T02:49:15.856Z,3.90
2023-05-22T02:51:47.553Z,3.87
2023-05-22T02:54:16.285Z,5.40
2023-05-22T02:56:43.778Z,3.87
2023-05-22T02:59:11.007Z,4.20
2023-05-22T03:01:38.979Z,4.00
2023-05-22T03:04:06.829Z,4.00
2023-05-22T03:06:35.574Z,3.23
2023-05-22T03:09:04.183Z,8.23
2023-05-22T03:11:32.142Z,3.67
2023-05-22T03:13:58.966Z,4.37
2023-05-22T03:16:26.724Z,3.43
2023-05-22T03:19:11.209Z,3.50
2023-05-22T03:21:38.667Z,6.40
2023-05-22T03:24:06.108Z,3.77
2023-05-22T03:26:33.792Z,4.37
2023-05-22T03:29:00.791Z,4.70
2023-05-22T03:31:29.326Z,3.17
2023-05-22T03:33:56.148Z,4.77
2023-05-22T03:36:23.413Z,3.93
2023-05-22T03:38:50.367Z,3.17
2023-05-22T03:41:18.159Z,3.83
2023-05-22T03:43:46.027Z,3.90
2023-05-22T03:46:13.056Z,5.60
2023-05-22T03:48:39.913Z,4.70
2023-05-22T03:51:06.794Z,5.10
2023-05-22T03:53:33.619Z,5.07
2023-05-22T03:56:00.406Z,4.40
2023-05-22T03:58:27.496Z,5.63
2023-05-22T04:00:55.656Z,4.60
2023-05-22T04:03:22.633Z,4.90
2023-05-22T04:05:49.611Z,4.53
2023-05-22T04:08:16.725Z,4.00
2023-05-22T04:10:46.590Z,5.70
2023-05-22T04:13:15.854Z,4.50
2023-05-22T04:15:45.937Z,5.43
2023-05-22T04:18:13.328Z,5.30
2023-05-22T04:20:40.737Z,4.43
2023-05-22T04:23:08.030Z,4.47
2023-05-22T04:25:36.493Z,4.50
2023-05-22T04:28:04.284Z,4.50
2023-05-22T04:30:37.563Z,4.30
2023-05-22T04:33:05.678Z,3.80
2023-05-22T04:35:32.765Z,4.57
2023-05-22T04:38:03.713Z,4.60
2023-05-22T04:40:33.514Z,3.60
2023-05-22T04:43:01.570Z,4.27
2023-05-22T04:45:29.154Z,5.30
2023-05-22T04:47:56.499Z,4.40
2023-05-22T04:50:24.095Z,4.10
2023-05-22T04:52:51.071Z,4.30
2023-05-22T04:55:19.445Z,4.80
2023-05-22T04:57:47.413Z,4.30
2023-05-22T05:00:17.140Z,3.97
2023-05-22T05:02:44.159Z,4.33
2023-05-22T05:05:11.150Z,4.27
2023-05-22T05:07:39.542Z,4.00
2023-05-22T05:10:07.474Z,4.20
2023-05-22T05:12:34.778Z,3.97
2023-05-22T05:15:01.729Z,4.90
2023-05-22T05:17:28.900Z,4.00
2023-05-22T05:19:55.827Z,3.80
2023-05-22T05:22:23.082Z,4.13
2023-05-22T05:24:50.033Z,4.37
2023-05-22T05:27:16.989Z,4.83
2023-05-22T05:29:44.253Z,4.60
2023-05-22T05:32:13.001Z,3.57
2023-05-22T05:34:40.078Z,4.93
2023-05-22T05:37:06.998Z,4.70
2023-05-22T05:39:33.935Z,4.40
2023-05-22T05:42:00.829Z,4.10
2023-05-22T05:44:27.702Z,5.03
2023-05-22T05:46:54.964Z,3.63
2023-05-22T05:49:22.433Z,3.93
2023-05-22T05:51:49.316Z,4.23
2023-05-22T05:54:16.315Z,4.20
2023-05-22T05:56:43.301Z,3.93
2023-05-22T05:59:10.134Z,4.00
2023-05-22T06:01:38.803Z,3.17
2023-05-22T06:04:05.877Z,3.43
2023-05-22T06:06:36.467Z,3.37
2023-05-22T06:09:06.220Z,2.60
2023-05-22T06:11:34.157Z,3.17
2023-05-22T06:14:07.116Z,3.60
2023-05-22T06:16:36.908Z,3.07
2023-05-22T06:19:04.762Z,3.07
2023-05-22T06:21:31.677Z,3.00
2023-05-22T06:23:58.921Z,2.40
2023-05-22T06:26:26.252Z,3.03
2023-05-22T06:28:55.932Z,2.63
2023-05-22T06:31:23.104Z,2.70
2023-05-22T06:33:50.893Z,2.60
2023-05-22T06:36:19.071Z,3.30
2023-05-22T06:38:51.678Z,3.93
2023-05-22T06:41:18.558Z,3.60
2023-05-22T06:43:45.347Z,2.90
2023-05-22T06:46:12.256Z,3.50
2023-05-22T06:48:39.167Z,2.97
2023-05-22T06:51:06.079Z,3.60
2023-05-22T06:53:32.909Z,3.30
2023-05-22T06:55:59.700Z,3.30
2023-05-22T06:58:26.848Z,2.77
2023-05-22T07:00:55.349Z,3.37
2023-05-22T07:03:23.202Z,3.47
2023-05-22T07:05:50.145Z,2.97
2023-05-22T07:08:16.995Z,3.70
2023-05-22T07:10:43.795Z,3.20
2023-05-22T07:13:11.227Z,2.63
2023-05-22T07:15:38.082Z,2.83
2023-05-22T07:18:05.142Z,2.87
2023-05-22T07:20:32.155Z,2.80
2023-05-22T07:22:58.958Z,2.53
2023-05-22T07:25:25.833Z,2.87
2023-05-22T07:27:52.748Z,2.70
2023-05-22T07:30:19.604Z,2.90
2023-05-22T07:32:47.100Z,2.17
2023-05-22T07:35:14.506Z,2.50
2023-05-22T07:37:41.539Z,3.20
2023-05-22T07:40:09.779Z,2.23
2023-05-22T07:42:36.766Z,2.67
2023-05-22T07:45:03.789Z,2.27
2023-05-22T07:47:30.681Z,2.30
2023-05-22T07:49:57.601Z,1.80
2023-05-22T07:52:24.454Z,2.80
2023-05-22T07:54:51.300Z,2.10
2023-05-22T07:57:18.115Z,2.10
2023-05-22T07:59:45.480Z,1.83
2023-05-22T08:02:12.439Z,1.60
2023-05-22T08:04:39.721Z,1.63
2023-05-22T08:07:07.025Z,2.27
2023-05-22T08:09:34.086Z,1.87
2023-05-22T08:12:01.243Z,1.67
2023-05-22T08:14:28.151Z,2.30
2023-05-22T08:17:04.645Z,2.17
2023-05-22T08:19:31.989Z,2.20
2023-05-22T08:21:58.940Z,2.13
2023-05-22T08:24:30.602Z,2.63
2023-05-22T08:27:01.216Z,1.77
2023-05-22T08:29:28.697Z,2.37
2023-05-22T08:31:56.999Z,2.10
2023-05-22T08:34:24.770Z,2.33
2023-05-22T08:36:51.784Z,2.40
2023-05-22T08:39:19.363Z,2.13
2023-05-22T08:41:47.700Z,2.60
2023-05-22T08:44:14.829Z,2.53
2023-05-22T08:46:41.909Z,2.67
2023-05-22T08:49:13.622Z,2.90
2023-05-22T08:51:44.666Z,2.50
2023-05-22T08:54:11.490Z,2.33
2023-05-22T08:56:52.816Z,2.37
2023-05-22T08:59:23.321Z,1.70
2023-05-22T09:01:52.408Z,1.70
2023-05-22T09:04:23.148Z,1.73
2023-05-22T09:06:50.807Z,2.23
2023-05-22T09:09:18.002Z,2.20
2023-05-22T09:11:44.808Z,3.40
2023-05-22T09:14:12.347Z,2.20
2023-05-22T09:16:46.745Z,2.20
2023-05-22T09:19:17.548Z,2.30
2023-05-22T09:21:44.616Z,1.70
2023-05-22T09:24:12.316Z,2.47
2023-05-22T09:26:40.011Z,2.50
2023-05-22T09:29:10.349Z,1.73
2023-05-22T09:31:44.281Z,3.20
2023-05-22T09:34:14.148Z,2.50
2023-05-22T09:36:41.862Z,2.20
2023-05-22T09:39:09.548Z,1.47
2023-05-22T09:41:42.251Z,2.17
2023-05-22T09:44:16.034Z,2.20
2023-05-22T09:46:45.577Z,2.00
2023-05-22T09:49:15.761Z,2.27
2023-05-22T09:51:49.066Z,1.90
2023-05-22T09:54:17.531Z,2.53
2023-05-22T09:56:46.400Z,2.60
2023-05-22T09:59:14.491Z,2.30
2023-05-22T10:01:42.795Z,1.97
2023-05-22T10:04:12.982Z,2.20
2023-05-22T10:06:42.141Z,2.00
2023-05-22T10:09:19.020Z,1.80
2023-05-22T10:11:47.406Z,2.20
2023-05-22T10:14:15.095Z,2.10
2023-05-22T10:16:45.970Z,2.20
2023-05-22T10:19:13.542Z,3.00
2023-05-22T10:21:42.100Z,1.93
2023-05-22T10:24:10.259Z,2.00
2023-05-22T10:26:38.693Z,1.73
2023-05-22T10:29:14.786Z,1.93
2023-05-22T10:31:45.979Z,1.40
2023-05-22T10:34:21.424Z,1.43
2023-05-22T10:37:16.565Z,1.83
2023-05-22T10:39:56.579Z,2.00
2023-05-22T10:42:23.658Z,2.00
2023-05-22T10:44:50.612Z,2.10
2023-05-22T10:47:17.483Z,1.77
2023-05-22T10:49:45.366Z,1.47
2023-05-22T10:52:14.643Z,2.27
2023-05-22T10:54:46.241Z,1.87
2023-05-22T10:57:17.477Z,1.80
2023-05-22T10:59:47.486Z,2.13
2023-05-22T11:02:31.241Z,1.50
2023-05-22T11:05:17.042Z,2.00
2023-05-22T11:07:43.999Z,1.57
2023-05-22T11:10:11.419Z,1.83
2023-05-22T11:12:38.273Z,1.47
2023-05-22T11:15:09.934Z,1.40
2023-05-22T11:17:39.526Z,1.87
2023-05-22T11:20:12.186Z,1.77
2023-05-22T11:22:44.816Z,1.73
2023-05-22T11:25:19.443Z,1.50
2023-05-22T11:27:48.099Z,1.70
2023-05-22T11:30:16.372Z,1.67
2023-05-22T11:32:45.407Z,1.63
2023-05-22T11:35:19.044Z,2.20
2023-05-22T11:37:46.229Z,1.73
2023-05-22T11:40:18.429Z,1.67
2023-05-22T11:42:45.447Z,2.17
2023-05-22T11:45:12.815Z,2.10
2023-05-22T11:47:39.934Z,1.70
2023-05-22T11:50:09.951Z,1.80
2023-05-22T11:52:40.630Z,1.80
2023-05-22T11:55:08.640Z,1.47
2023-05-22T11:57:36.247Z,1.93
2023-05-22T12:00:06.436Z,1.70
2023-05-22T12:02:33.719Z,2.10
2023-05-22T12:05:01.162Z,2.03
2023-05-22T12:07:28.409Z,1.80
2023-05-22T12:09:58.842Z,1.77
2023-05-22T12:12:26.144Z,2.00
2023-05-22T12:14:53.244Z,1.63
2023-05-22T12:17:20.315Z,2.07
2023-05-22T12:19:48.057Z,2.00
2023-05-22T12:22:15.089Z,1.70
2023-05-22T12:24:46.074Z,2.13
2023-05-22T12:27:14.094Z,1.73
2023-05-22T12:29:42.207Z,1.60
2023-05-22T12:32:13.025Z,1.70
2023-05-22T12:34:47.833Z,2.00
2023-05-22T12:37:23.095Z,1.70
2023-05-22T12:40:00.560Z,1.90
2023-05-22T12:42:28.705Z,1.40
2023-05-22T12:44:58.182Z,2.10
2023-05-22T12:47:25.450Z,1.50
2023-05-22T12:49:52.516Z,1.50
2023-05-22T12:52:19.934Z,1.80
2023-05-22T12:54:46.872Z,1.30
2023-05-22T12:57:13.791Z,1.93
2023-05-22T12:59:40.653Z,2.20
2023-05-22T13:02:07.629Z,1.57
2023-05-22T13:04:34.520Z,1.73
2023-05-22T13:07:01.482Z,1.97
2023-05-22T13:09:28.479Z,1.60
2023-05-22T13:11:55.828Z,1.83
2023-05-22T13:14:22.892Z,1.77
2023-05-22T13:16:49.754Z,1.80
2023-05-22T13:19:17.070Z,1.30
2023-05-22T13:21:44.103Z,1.60
2023-05-22T13:24:11.035Z,1.50
2023-05-22T13:26:40.027Z,1.90
2023-05-22T13:29:06.864Z,2.13
2023-05-22T13:31:37.447Z,1.50
2023-05-22T13:34:07.984Z,2.20
2023-05-22T13:36:34.887Z,1.87
2023-05-22T13:39:01.723Z,1.97
2023-05-22T13:41:28.673Z,1.73
2023-05-22T13:43:55.516Z,1.60
2023-05-22T13:46:22.833Z,1.67
2023-05-22T13:48:52.006Z,1.53
2023-05-22T13:51:18.865Z,1.30
2023-05-22T13:53:45.993Z,1.57
2023-05-22T13:56:12.840Z,1.60
2023-05-22T13:58:39.696Z,1.67
2023-05-22T14:01:06.572Z,1.80
2023-05-22T14:03:33.647Z,1.80
2023-05-22T14:06:00.604Z,2.23
2023-05-22T14:08:27.457Z,1.63
2023-05-22T14:10:54.320Z,2.30
2023-05-22T14:13:21.131Z,1.70
2023-05-22T14:15:47.999Z,1.80
2023-05-22T14:18:16.631Z,1.60
2023-05-22T14:20:44.098Z,1.60
2023-05-22T14:23:11.784Z,1.27
2023-05-22T14:25:42.945Z,1.80
2023-05-22T14:28:10.757Z,1.50
2023-05-22T14:30:37.851Z,1.70
2023-05-22T14:33:05.582Z,1.97
2023-05-22T14:35:33.339Z,1.60
2023-05-22T14:38:00.364Z,1.63
2023-05-22T14:40:27.282Z,1.63
2023-05-22T14:42:54.472Z,1.90
2023-05-22T14:45:21.722Z,2.00
2023-05-22T14:47:48.618Z,1.70
2023-05-22T14:50:19.791Z,1.93
2023-05-22T14:52:49.930Z,1.70
2023-05-22T14:55:17.596Z,2.07
2023-05-22T14:57:44.616Z,1.80
2023-05-22T15:00:12.595Z,3.73
2023-05-22T15:02:40.184Z,2.20
2023-05-22T15:05:07.832Z,2.10
2023-05-22T15:07:44.064Z,1.90
2023-05-22T15:10:12.370Z,1.77
2023-05-22T15:12:39.198Z,1.87
2023-05-22T15:15:06.453Z,1.80
2023-05-22T15:17:33.450Z,1.70
2023-05-22T15:20:00.517Z,1.83
2023-05-22T15:22:27.351Z,2.07
2023-05-22T15:25:08.238Z,1.50
2023-05-22T15:27:35.981Z,1.70
2023-05-22T15:30:04.245Z,1.60
2023-05-22T15:32:34.511Z,1.77
2023-05-22T15:35:02.968Z,1.77
2023-05-22T15:37:32.615Z,1.73
2023-05-22T15:40:01.378Z,1.80
2023-05-22T15:42:28.483Z,1.90
2023-05-22T15:44:55.566Z,1.57
2023-05-22T15:47:22.464Z,1.70
2023-05-22T15:49:51.671Z,1.90
2023-05-22T15:52:19.284Z,1.43
2023-05-22T15:54:46.205Z,1.40
2023-05-22T15:57:13.095Z,1.80
2023-05-22T15:59:39.885Z,1.63
2023-05-22T16:02:06.987Z,1.63
2023-05-22T16:04:33.787Z,1.67
2023-05-22T16:07:00.707Z,1.80
2023-05-22T16:09:27.596Z,1.70
2023-05-22T16:11:54.422Z,1.80
2023-05-22T16:14:21.668Z,2.47
2023-05-22T16:16:48.452Z,2.27
2023-05-22T16:19:15.325Z,2.30
2023-05-22T16:21:42.188Z,1.83
2023-05-22T16:24:10.902Z,1.33
2023-05-22T16:26:38.330Z,1.77
2023-05-22T16:29:08.697Z,1.70
2023-05-22T16:31:35.792Z,1.53
2023-05-22T16:34:03.559Z,2.10
2023-05-22T16:36:30.993Z,1.50
2023-05-22T16:39:01.401Z,1.90
2023-05-22T16:41:28.424Z,2.00
2023-05-22T16:43:55.833Z,1.73
2023-05-22T16:46:22.808Z,1.90
2023-05-22T16:48:50.554Z,1.40
2023-05-22T16:51:17.420Z,1.70
2023-05-22T16:53:44.268Z,2.10
2023-05-22T16:56:11.146Z,1.90
2023-05-22T16:58:38.783Z,1.50
2023-05-22T17:01:06.503Z,1.90
2023-05-22T17:03:33.989Z,1.90
2023-05-22T17:06:03.066Z,1.93
2023-05-22T17:08:30.277Z,1.70
2023-05-22T17:10:57.079Z,2.17
2023-05-22T17:13:23.973Z,1.70
2023-05-22T17:15:51.680Z,2.50
2023-05-22T17:18:22.214Z,2.10
2023-05-22T17:20:49.931Z,1.67
2023-05-22T17:23:17.151Z,1.80
2023-05-22T17:25:46.692Z,2.20
2023-05-22T17:28:14.971Z,1.73
2023-05-22T17:30:42.887Z,1.50
2023-05-22T17:33:10.990Z,1.80
2023-05-22T17:35:37.946Z,1.97
2023-05-22T17:38:04.783Z,2.20
2023-05-22T17:40:43.804Z,1.70
2023-05-22T17:43:11.350Z,1.80
2023-05-22T17:45:38.266Z,2.10
2023-05-22T17:48:06.161Z,2.17
2023-05-22T17:50:33.025Z,1.60
2023-05-22T17:53:01.904Z,1.80
2023-05-22T17:55:28.854Z,1.80
2023-05-22T17:57:58.831Z,2.00
2023-05-22T18:00:25.731Z,1.80
2023-05-22T18:02:52.770Z,1.70
2023-05-22T18:05:20.123Z,2.30
2023-05-22T18:07:47.425Z,1.80
2023-05-22T18:10:14.345Z,1.60
2023-05-22T18:12:41.252Z,1.53
2023-05-22T18:15:10.683Z,2.57
2023-05-22T18:17:38.113Z,1.90
2023-05-22T18:20:08.775Z,1.70
2023-05-22T18:22:37.220Z,1.93
2023-05-22T18:25:04.533Z,2.20
2023-05-22T18:27:31.527Z,2.30
2023-05-22T18:29:58.365Z,2.20
2023-05-22T18:32:25.229Z,2.20
2023-05-22T18:34:54.675Z,2.30
2023-05-22T18:37:21.821Z,2.33
2023-05-22T18:39:48.816Z,2.30
2023-05-22T18:42:15.810Z,2.20
2023-05-22T18:44:42.676Z,2.30
2023-05-22T18:47:09.540Z,1.90
2023-05-22T18:49:36.426Z,1.90
2023-05-22T18:52:03.396Z,2.20
2023-05-22T18:54:30.247Z,2.53
2023-05-22T18:56:57.130Z,2.40
2023-05-22T18:59:23.924Z,1.80
2023-05-22T19:01:51.024Z,1.50
2023-05-22T19:04:18.080Z,2.13
2023-05-22T19:06:46.106Z,2.10
2023-05-22T19:09:13.812Z,2.23
2023-05-22T19:11:40.631Z,2.30
2023-05-22T19:14:07.467Z,2.70
2023-05-22T19:16:34.334Z,2.60
2023-05-22T19:19:01.209Z,2.63
2023-05-22T19:21:28.063Z,2.03
2023-05-22T19:23:54.917Z,2.80
2023-05-22T19:26:21.726Z,1.97
2023-05-22T19:28:48.546Z,2.30
2023-05-22T19:31:16.500Z,2.70
2023-05-22T19:33:43.676Z,2.87
2023-05-22T19:36:10.700Z,2.60
2023-05-22T19:38:37.468Z,2.93
2023-05-22T19:41:04.279Z,3.10
2023-05-22T19:43:31.470Z,2.33
2023-05-22T19:45:58.675Z,2.70
2023-05-22T19:48:25.749Z,2.67
2023-05-22T19:50:52.909Z,2.80
2023-05-22T19:53:19.697Z,3.20
2023-05-22T19:55:47.569Z,3.00
2023-05-22T19:58:14.397Z,2.83
2023-05-22T20:00:41.695Z,2.83
2023-05-22T20:03:09.121Z,4.00
2023-05-22T20:05:36.072Z,2.40
2023-05-22T20:08:03.127Z,2.77
2023-05-22T20:10:31.647Z,2.97
2023-05-22T20:12:59.493Z,3.30
2023-05-22T20:15:26.304Z,2.40
2023-05-22T20:17:54.505Z,2.50
2023-05-22T20:20:24.195Z,2.20
2023-05-22T20:22:52.806Z,2.77
2023-05-22T20:25:21.411Z,2.80
2023-05-22T20:27:48.525Z,3.00
2023-05-22T20:30:21.685Z,2.90
2023-05-22T20:32:48.596Z,2.30
2023-05-22T20:35:19.005Z,2.43
2023-05-22T20:37:46.680Z,2.87
2023-05-22T20:40:16.533Z,2.67
2023-05-22T20:42:43.659Z,2.93
2023-05-22T20:45:13.598Z,3.50
2023-05-22T20:47:41.546Z,2.67
2023-05-22T20:50:09.153Z,3.10
2023-05-22T20:52:37.451Z,3.00
2023-05-22T20:55:04.876Z,3.20
2023-05-22T20:57:31.916Z,3.37
2023-05-22T21:00:01.356Z,3.73
2023-05-22T21:02:28.245Z,3.30
2023-05-22T21:04:55.171Z,3.40
2023-05-22T21:07:22.048Z,2.87
2023-05-22T21:09:48.872Z,3.00
2023-05-22T21:12:15.810Z,2.80
2023-05-22T21:14:44.277Z,3.00
2023-05-22T21:17:11.182Z,3.40
2023-05-22T21:19:38.069Z,3.33
2023-05-22T21:22:05.133Z,4.00
2023-05-22T21:24:32.775Z,3.50
2023-05-22T21:26:59.709Z,3.33
2023-05-22T21:29:26.606Z,3.47
2023-05-22T21:31:53.572Z,3.73
2023-05-22T21:34:20.470Z,3.70
2023-05-22T21:36:47.332Z,4.17
2023-05-22T21:39:14.498Z,3.00
2023-05-22T21:41:41.370Z,3.80
2023-05-22T21:44:10.019Z,3.30
2023-05-22T21:46:37.330Z,3.30
2023-05-22T21:49:06.052Z,3.70
2023-05-22T21:51:33.005Z,3.67
2023-05-22T21:53:59.880Z,3.73
2023-05-22T21:56:27.108Z,3.70
2023-05-22T21:58:53.931Z,3.93
2023-05-22T22:01:21.051Z,3.93
2023-05-22T22:03:47.982Z,4.10
2023-05-22T22:06:14.904Z,3.73
2023-05-22T22:08:41.802Z,3.00
2023-05-22T22:11:08.573Z,3.43
2023-05-22T22:13:36.021Z,3.30
2023-05-22T22:16:02.893Z,3.60
2023-05-22T22:18:32.891Z,4.07
2023-05-22T22:21:02.123Z,3.73
2023-05-22T22:23:29.657Z,3.80
2023-05-22T22:25:56.541Z,3.77
2023-05-22T22:28:23.379Z,4.63
2023-05-22T22:30:50.168Z,4.03
2023-05-22T22:33:16.996Z,4.40
2023-05-22T22:35:43.796Z,3.90
2023-05-22T22:38:10.617Z,4.17
2023-05-22T22:40:37.379Z,3.93
2023-05-22T22:43:04.213Z,4.53
2023-05-22T22:45:31.511Z,4.33
2023-05-22T22:47:58.368Z,3.93
2023-05-22T22:50:25.467Z,4.90
2023-05-22T22:52:52.421Z,4.70
2023-05-22T22:55:19.484Z,5.20
2023-05-22T22:57:50.111Z,4.43
2023-05-22T23:00:19.145Z,4.87
2023-05-22T23:02:46.175Z,4.57
2023-05-22T23:05:14.724Z,4.30
2023-05-22T23:07:41.728Z,5.20
2023-05-22T23:10:09.090Z,4.30
2023-05-22T23:12:36.386Z,5.80
2023-05-22T23:15:04.013Z,4.97
2023-05-22T23:17:30.903Z,4.90
2023-05-22T23:19:57.734Z,4.17
2023-05-22T23:22:24.525Z,4.33
2023-05-22T23:24:51.401Z,5.60
2023-05-22T23:27:18.347Z,5.87
2023-05-22T23:29:45.238Z,4.20
2023-05-22T23:32:14.596Z,4.80
2023-05-22T23:34:42.436Z,5.20
2023-05-22T23:37:09.798Z,4.10
2023-05-22T23:39:36.698Z,4.80
2023-05-22T23:42:03.870Z,4.70
2023-05-22T23:44:31.415Z,4.47
2023-05-22T23:46:58.314Z,4.60
2023-05-22T23:49:25.136Z,4.40
2023-05-22T23:51:52.162Z,4.90
2023-05-22T23:54:18.974Z,5.03
2023-05-22T23:56:45.869Z,5.30
2023-05-22T23:59:12.637Z,4.33
